Flight Track Log - Related Links

Times and Time Zones

All times are in EDT time to prevent confusion due to time zone crossing. See the BAW283 flight status page for this flight to view local times or setup timezone preferences in your user account.

Time Position Orientation Groundspeed Altitude Reporting Facility
EDT Latitude Longitude Course Direction KTS MPH feet Rate Location/Type
Wed 07:37:57 AM 51.4700 -0.3990 56° Northeast 177 204 1,000  Level FlightAware ADS-B
Wed 07:38:22 AM 51.4850 -0.3710 49° Northeast 192 221 1,400 1,333 Climbing FlightAware ADS-B
Wed 07:38:42 AM 51.4970 -0.3480 50° Northeast 195 224 2,000 -514 Climbing FlightAware ADS-B
Wed 07:38:57 AM 51.5083 -0.3271 50° Northeast 208 239 1,100 1,920 Descending FlightAware UK
Wed 07:39:07 AM 51.5110 -0.3230 50° Northeast 197 227 2,800 5,538 Climbing FlightAware ADS-B
Wed 07:39:23 AM 51.5233 -0.2969 53° Northeast 199 229 3,500 2,286 Climbing FlightAware ADS-B
Wed 07:39:28 AM 51.5251 -0.2902 67° East 198 228 3,600 1,714 Climbing FlightAware ADS-B
Wed 07:39:44 AM 51.5305 -0.2684 68° East 198 228 4,100 1,895 Climbing FlightAware ADS-B
Wed 07:39:47 AM 51.5322 -0.2647 53° Northeast 202 232 4,200 667 Climbing FlightAware ADS-B
Wed 07:39:53 AM 51.5361 -0.2579 47° Northeast 207 238 4,200  Level FlightAware ADS-B
Wed 07:39:57 AM 51.5391 -0.2541 38° Northeast 213 245 4,200 750 Level FlightAware ADS-B
Wed 07:40:01 AM 51.5424 -0.2518 24° Northeast 216 249 4,300 1,333 Climbing FlightAware ADS-B
Wed 07:40:06 AM 51.5472 -0.2486 23° Northeast 222 255 4,400 462 Climbing FlightAware ADS-B
Wed 07:40:14 AM 51.5553 -0.2472 North 233 268 4,400 857 Level FlightAware ADS-B
Wed 07:40:20 AM 51.5625 -0.2476 358° North 239 275 4,600 1,091 Climbing FlightAware ADS-B
Wed 07:40:36 AM 51.5806 -0.2500 355° North 256 295 4,800 938 Climbing FlightAware ADS-B
Wed 07:40:52 AM 51.5995 -0.2526 355° North 274 315 5,100 1,400 Climbing FlightAware ADS-B
Wed 07:41:06 AM 51.6176 -0.2549 355° North 284 327 5,500 1,385 Climbing FlightAware ADS-B
Wed 07:41:18 AM 51.6338 -0.2554 359° North 291 335 5,700 444 Climbing FlightAware ADS-B
Wed 07:41:33 AM 51.6547 -0.2551 North 297 342 5,700  Level FlightAware ADS-B
Wed 07:41:48 AM 51.6754 -0.2543 North 296 341 5,700  Level FlightAware ADS-B
Wed 07:41:54 AM 51.6831 -0.2534 North 296 341 5,700 273 Level FlightAware ADS-B
Wed 07:42:10 AM 51.7050 -0.2473 10° North 296 341 5,800 194 Climbing FlightAware ADS-B
Wed 07:42:25 AM 51.7256 -0.2408 11° North 297 342 5,800  Level FlightAware ADS-B
Wed 07:42:42 AM 51.7486 -0.2341 10° North 298 343 5,800 563 Level FlightAware ADS-B
Wed 07:42:57 AM 51.7691 -0.2282 10° North 300 345 6,100 2,000 Climbing FlightAware ADS-B
Wed 07:43:12 AM 51.7896 -0.2219 11° North 299 344 6,800 2,710 Climbing FlightAware ADS-B
Wed 07:43:28 AM 51.8110 -0.2156 10° North 301 346 7,500 2,438 Climbing FlightAware ADS-B
Wed 07:43:44 AM 51.8331 -0.2089 11° North 304 350 8,100 2,182 Climbing FlightAware ADS-B
Wed 07:44:01 AM 51.8568 -0.2015 11° North 307 353 8,700 2,400 Climbing FlightAware ADS-B
Wed 07:44:19 AM 51.8817 -0.1935 11° North 308 354 9,500 2,368 Climbing FlightAware ADS-B
Wed 07:44:39 AM 51.9109 -0.1858 North 311 358 10,200 1,920 Climbing FlightAware ADS-B
Wed 07:44:44 AM 51.9182 -0.1862 358° North 314 361 10,300 1,200 Climbing FlightAware ADS-B
Wed 07:44:49 AM 51.9247 -0.1882 349° North 318 366 10,400 923 Climbing FlightAware ADS-B
Wed 07:44:57 AM 51.9352 -0.1939 341° North 324 373 10,500 706 Climbing FlightAware ADS-B
Wed 07:45:06 AM 51.9476 -0.2067 328° Northwest 330 380 10,600 1,077 Climbing FlightAware ADS-B
Wed 07:45:36 AM 51.9848 -0.2546 322° Northwest 351 404 11,200 1,149 Climbing FlightAware ADS-B
Wed 07:45:53 AM 52.0067 -0.2811 323° Northwest 365 420 11,500 1,154 Climbing FlightAware ADS-B
Wed 07:46:02 AM 52.0195 -0.2944 327° Northwest 372 428 11,700 -1,588 Climbing FlightAware ADS-B
Wed 07:46:27 AM 52.0581 -0.3290 327° Northwest 390 449 10,600 1,355 Descending FlightAware UK
Wed 07:46:33 AM 52.0684 -0.3378 327° Northwest 388 447 12,400 2,000 Climbing FlightAware ADS-B
Wed 07:46:51 AM 52.0966 -0.3624 327° Northwest 398 458 11,400 1,935 Descending FlightAware UK
Wed 07:47:04 AM 52.1176 -0.3792 327° Northwest 396 456 13,400 4,186 Climbing FlightAware ADS-B
Wed 07:47:34 AM 52.1671 -0.4227 332° Northwest 401 461 14,400 1,869 Climbing FlightAware ADS-B
Wed 07:48:05 AM 52.2182 -0.4665 332° Northwest 407 468 15,300 1,754 Climbing FlightAware ADS-B
Wed 07:48:39 AM 52.2747 -0.5134 333° Northwest 412 474 16,300 231 Climbing FlightAware ADS-B
Wed 07:48:57 AM 52.3057 -0.5401 333° Northwest 420 483 15,500 2,200 Descending FlightAware UK
Wed 07:49:09 AM 52.3266 -0.5569 333° Northwest 413 475 17,400 3,733 Climbing FlightAware ADS-B
Wed 07:49:42 AM 52.3832 -0.6039 333° Northwest 418 481 18,300 364 Climbing FlightAware ADS-B
Wed 07:50:15 AM 52.4397 -0.6503 333° Northwest 426 490 17,800 1,674 Descending FlightAware UK
Wed 07:50:25 AM 52.4579 -0.6649 333° Northwest 422 486 19,500 3,600 Climbing FlightAware ADS-B
Wed 07:51:00 AM 52.5190 -0.7135 334° Northwest 425 489 20,500 1,714 Climbing FlightAware ADS-B
Wed 07:51:14 AM 52.5428 -0.7350 331° Northwest 424 488 20,900 724 Climbing FlightAware ADS-B
Wed 07:52:56 AM 52.7058 -0.9321 311° West 446 513 21,900 1,434 Climbing FlightAware UK
Wed 07:53:00 AM 52.6883 -1.0088 311° West  Level Estimated
Wed 07:53:07 AM 52.7150 -0.9430 311° West 431 496 23,600  Level FlightAware ADS-B
Wed 07:53:32 AM 52.7639 -1.0028 311° West 450 518 22,700 1,200 Descending FlightAware UK
Wed 07:53:52 AM 52.7900 -1.0380 311° West 434 499 24,500 1,111 Climbing FlightAware ADS-B
Wed 07:54:26 AM 52.8455 -1.1218 311° West 456 525 23,700 1,200 Descending FlightAware UK
Wed 07:54:32 AM 52.8510 -1.1270 311° West 439 505 25,300 1,167 Climbing FlightAware ADS-B
Wed 07:55:02 AM 52.9009 -1.2013 311° West 462 532 24,400 1,050 Descending FlightAware UK
Wed 07:55:12 AM 52.9090 -1.2110 311° West 443 510 26,000 1,143 Climbing FlightAware ADS-B
Wed 07:55:44 AM 52.9666 -1.2933 311° West 470 541 25,200 1,333 Descending FlightAware UK
Wed 07:55:57 AM 52.9810 -1.3130 311° West 445 512 27,000 1,200 Climbing FlightAware ADS-B
Wed 07:56:14 AM 53.0138 -1.3595 311° West 472 543 25,800 1,029 Descending FlightAware UK
Wed 07:56:32 AM 53.0370 -1.3900 311° West 447 514 27,600 1,000 Climbing FlightAware ADS-B
Wed 07:56:50 AM 53.0705 -1.4396 311° West 474 545 26,400 -1,500 Descending FlightAware UK
Wed 07:57:08 AM 53.0987 -1.4795 320° Northwest 476 548 26,700 4,444 Climbing FlightAware UK
Wed 07:57:17 AM 53.1070 -1.4910 320° Northwest 452 520 28,400 1,000 Climbing FlightAware ADS-B
Wed 07:57:32 AM 53.1369 -1.5338 320° Northwest 478 550 27,100 -1,818 Descending FlightAware UK
Wed 07:57:50 AM 53.1656 -1.5749 319° Northwest 480 552 27,400 3,800 Climbing FlightAware UK
Wed 07:58:02 AM 53.1810 -1.5960 319° Northwest 456 525 29,000 4,857 Climbing FlightAware ADS-B
Wed 07:58:11 AM 53.1996 -1.6235 318° Northwest 460 529 29,100 -3,250 Climbing FlightAware ADS-B
Wed 07:58:26 AM 53.2234 -1.6578 318° Northwest 490 564 27,700 581 Descending FlightAware UK
Wed 07:58:42 AM 53.2430 -1.6840 318° Northwest 465 535 29,400 4,320 Climbing FlightAware ADS-B
Wed 07:58:51 AM 53.2649 -1.7172 318° Northwest 468 539 29,500 -2,769 Climbing FlightAware ADS-B
Wed 07:59:08 AM 53.2921 -1.7571 318° Northwest 494 568 28,200 909 Descending FlightAware UK
Wed 07:59:24 AM 53.3185 -1.7951 318° Northwest 469 540 30,000 1,143 Climbing FlightAware ADS-B
Wed 07:59:50 AM 53.3606 -1.8560 318° Northwest 494 568 29,000 1,313 Descending FlightAware UK
Wed 07:59:56 AM 53.3705 -1.8685 318° Northwest 467 537 30,700 3,667 Climbing FlightAware ADS-B
Wed 08:00:26 AM 53.4201 -1.9419 319° Northwest 466 536 31,200 -875 Climbing FlightAware ADS-B
Wed 08:00:44 AM 53.4484 -1.9839 319° Northwest 490 564 30,000 938 Descending FlightAware UK
Wed 08:00:58 AM 53.4708 -2.0153 319° Northwest 465 535 31,700 828 Climbing FlightAware ADS-B
Wed 08:01:13 AM 53.4966 -2.0546 319° Northwest 488 562 30,400 720 Descending FlightAware UK
Wed 08:01:23 AM 53.5073 -2.0800 319° Northwest 457 526 32,000 200 Climbing FlightAware ADS-B
Wed 08:01:43 AM 53.5283 -2.1462 319° Northwest 490 564 30,500  Descending FlightAware UK
Wed 08:01:57 AM 53.5417 -2.1849 319° Northwest 454 522 32,000 2,045 Climbing FlightAware ADS-B
Wed 08:02:27 AM 53.5692 -2.2798 296° West 453 521 32,000 -1,731 Level FlightAware ADS-B
Wed 08:02:49 AM 53.5875 -2.3548 296° West 490 564 30,500 -2,250 Descending FlightAware UK
Wed 08:03:07 AM 53.6020 -2.4130 293° West 490 564 30,500  Level FlightAware UK
Wed 08:03:25 AM 53.6171 -2.4707 294° West 490 564 30,500 3,000 Level FlightAware UK
Wed 08:03:37 AM 53.6240 -2.4960 294° West 451 519 32,000  Climbing FlightAware ADS-B
Wed 08:03:55 AM 53.6422 -2.5670 294° West 490 564 30,500  Descending FlightAware UK
Wed 08:04:17 AM 53.6570 -2.6240 294° West 450 518 32,000  Climbing FlightAware ADS-B
Wed 08:04:55 AM 53.6921 -2.7593 294° West 490 564 30,500  Descending FlightAware UK
Wed 08:05:02 AM 53.6950 -2.7690 294° West 451 519 32,000  Climbing FlightAware ADS-B
Wed 08:05:19 AM 53.7121 -2.8365 294° West 490 564 30,500  Descending FlightAware UK
Wed 08:05:42 AM 53.7270 -2.8950 294° West 451 519 32,000 1,429 Climbing FlightAware ADS-B
Wed 08:06:22 AM 53.7620 -3.0330 293° West 450 518 32,000 -1,636 Level FlightAware ADS-B
Wed 08:06:37 AM 53.7764 -3.0876 293° West 490 564 30,500 -2,727 Descending FlightAware UK
Wed 08:06:55 AM 53.7910 -3.1459 293° West 490 564 30,500 3,000 Level FlightAware UK
Wed 08:07:07 AM 53.7990 -3.1720 293° West 450 518 32,000  Climbing FlightAware ADS-B
Wed 08:07:25 AM 53.8198 -3.2388 293° West 488 562 30,500  Descending FlightAware UK
Wed 08:07:47 AM 53.8380 -3.2920 293° West 452 520 32,000  Climbing FlightAware ADS-B
Wed 08:08:13 AM 53.8700 -3.3861 293° West 486 559 30,500  Descending FlightAware UK
Wed 08:08:32 AM 53.8860 -3.4340 293° West 453 521 32,000  Climbing FlightAware ADS-B
Wed 08:09:01 AM 53.9186 -3.5354 293° West 490 564 30,500  Descending FlightAware UK
Wed 08:09:12 AM 53.9290 -3.5640 293° West 454 522 32,000  Climbing FlightAware ADS-B
Wed 08:09:31 AM 53.9501 -3.6281 293° West 488 562 30,500 -2,432 Descending FlightAware UK
Wed 08:09:49 AM 53.9692 -3.6835 300° West 488 562 30,500 3,462 Level FlightAware UK
Wed 08:09:57 AM 53.9750 -3.6970 300° West 454 522 32,000  Climbing FlightAware ADS-B
Wed 08:10:18 AM 54.0005 -3.7754 300° West 490 564 30,500  Descending FlightAware UK
Wed 08:10:37 AM 54.0160 -3.8210 300° West 454 522 32,000  Climbing FlightAware ADS-B
Wed 08:11:13 AM 54.0567 -3.9436 300° West 490 564 30,500  Descending FlightAware UK
Wed 08:11:17 AM 54.0550 -3.9390 300° West 453 521 32,000 1,837 Climbing FlightAware ADS-B
Wed 08:12:02 AM 54.1050 -4.0900 300° West 453 521 32,000 -1,475 Level FlightAware ADS-B
Wed 08:12:18 AM 54.1244 -4.1480 300° West 490 564 30,500 -2,647 Descending FlightAware UK
Wed 08:12:36 AM 54.1429 -4.2039 299° West 490 564 30,500 3,750 Level FlightAware UK
Wed 08:12:42 AM 54.1450 -4.2080 299° West 452 520 32,000 1,957 Climbing FlightAware ADS-B
Wed 08:13:22 AM 54.1860 -4.3390 298° West 448 516 32,000 -1,500 Level FlightAware ADS-B
Wed 08:13:42 AM 54.2002 -4.4146 298° West 490 564 30,500 -2,045 Descending FlightAware UK
Wed 08:14:06 AM 54.2094 -4.4968 281° West 490 564 30,500 3,600 Level FlightAware UK
Wed 08:14:07 AM 54.2080 -4.4850 281° West 441 507 32,000  Climbing FlightAware ADS-B
Wed 08:14:30 AM 54.2183 -4.5788 281° West 490 564 30,500  Descending FlightAware UK
Wed 08:14:52 AM 54.2260 -4.6450 281° West 441 507 32,000  Climbing FlightAware ADS-B
Wed 08:15:12 AM 54.2340 -4.7224 281° West 488 562 30,500  Descending FlightAware UK
Wed 08:15:32 AM 54.2400 -4.7790 281° West 442 509 32,000  Climbing FlightAware ADS-B
Wed 08:15:48 AM 54.2475 -4.8458 281° West 490 564 30,500 -2,647 Descending FlightAware UK
Wed 08:16:06 AM 54.2541 -4.9069 280° West 490 564 30,500 3,750 Level FlightAware UK
Wed 08:16:12 AM 54.2560 -4.9200 280° West 443 510 32,000  Climbing FlightAware ADS-B
Wed 08:16:30 AM 54.2631 -4.9894 280° West 490 564 30,500 -2,500 Descending FlightAware UK
Wed 08:16:48 AM 54.2697 -5.0514 280° West 490 564 30,500 3,333 Level FlightAware UK
Wed 08:16:57 AM 54.2710 -5.0610 280° West 443 510 32,000  Climbing FlightAware ADS-B
Wed 08:17:12 AM 54.2840 -5.1317 280° West 492 566 30,500 -2,727 Descending FlightAware UK
Wed 08:17:30 AM 54.3010 -5.1884 297° West 492 566 30,500 3,600 Level FlightAware UK
Wed 08:17:37 AM 54.3040 -5.1970 297° West 447 514 32,000  Climbing FlightAware ADS-B
Wed 08:17:54 AM 54.3241 -5.2635 297° West 492 566 30,500 -2,571 Descending FlightAware UK
Wed 08:18:12 AM 54.3413 -5.3198 298° West 492 566 30,500 3,214 Level FlightAware UK
Wed 08:18:22 AM 54.3480 -5.3440 298° West 445 512 32,000  Climbing FlightAware ADS-B
Wed 08:18:42 AM 54.3694 -5.4140 298° West 492 566 30,500 -2,368 Descending FlightAware UK
Wed 08:19:00 AM 54.3867 -5.4699 298° West 490 564 30,500 4,500 Level FlightAware UK
Wed 08:19:02 AM 54.3850 -5.4620 298° West 443 510 32,000  Climbing FlightAware ADS-B
Wed 08:19:18 AM 54.4052 -5.5245 298° West 492 566 30,500 -2,647 Descending FlightAware UK
Wed 08:19:36 AM 54.4236 -5.5793 300° West 492 566 30,500 3,750 Level FlightAware UK
Wed 08:19:42 AM 54.4280 -5.5910 300° West 442 509 32,000  Climbing FlightAware ADS-B
Wed 08:20:00 AM 54.4482 -5.6520 300° West 492 566 30,500 -2,500 Descending FlightAware UK
Wed 08:20:18 AM 54.4665 -5.7067 300° West 492 566 30,500 3,333 Level FlightAware UK
Wed 08:20:27 AM 54.4720 -5.7240 300° West 439 505 32,000  Climbing FlightAware ADS-B
Wed 08:20:42 AM 54.4905 -5.7796 300° West 490 564 30,500 -2,727 Descending FlightAware UK
Wed 08:21:00 AM 54.5085 -5.8341 300° West 490 564 30,500 3,600 Level FlightAware UK
Wed 08:21:07 AM 54.5130 -5.8450 300° West 436 502 32,000  Climbing FlightAware ADS-B
Wed 08:21:24 AM 54.5323 -5.9066 300° West 490 564 30,500 -2,571 Descending FlightAware UK
Wed 08:21:42 AM 54.5498 -5.9610 299° West 490 564 30,500 3,913 Level FlightAware UK
Wed 08:21:47 AM 54.5450 -5.9450 299° West 436 502 32,000  Climbing FlightAware ADS-B
Wed 08:22:06 AM 54.5736 -6.0331 299° West 490 564 30,500  Descending FlightAware UK
Wed 08:22:22 AM 54.5830 -6.0620 299° West 433 498 32,000  Climbing FlightAware ADS-B
Wed 08:22:24 AM 54.5911 -6.0873 299° West 488 562 30,500 -4,500 Descending FlightAware UK
Wed 08:22:42 AM 54.6086 -6.1405 299° West 488 562 30,500  Level FlightAware UK
Wed 08:23:00 AM 54.6259 -6.1946 299° West 488 562 30,500 3,600 Level FlightAware UK
Wed 08:23:07 AM 54.6230 -6.1860 299° West 432 497 32,000  Climbing FlightAware ADS-B
Wed 08:23:24 AM 54.6490 -6.2664 299° West 488 562 30,500 -2,571 Descending FlightAware UK
Wed 08:23:42 AM 54.6664 -6.3206 299° West 488 562 30,500 3,214 Level FlightAware UK
Wed 08:23:52 AM 54.6720 -6.3360 299° West 431 496 32,000  Climbing FlightAware ADS-B
Wed 08:24:12 AM 54.6954 -6.4111 299° West 488 562 30,500 -2,368 Descending FlightAware UK
Wed 08:24:30 AM 54.7127 -6.4653 299° West 488 562 30,500 3,600 Level FlightAware UK
Wed 08:24:37 AM 54.7160 -6.4740 299° West 430 495 32,000  Climbing FlightAware ADS-B
Wed 08:24:54 AM 54.7359 -6.5373 299° West 490 564 30,500 -2,571 Descending FlightAware UK
Wed 08:25:12 AM 54.7533 -6.5914 299° West 490 564 30,500 3,913 Level FlightAware UK
Wed 08:25:17 AM 54.7540 -6.5940 299° West 429 494 32,000  Climbing FlightAware ADS-B
Wed 08:25:36 AM 54.7763 -6.6636 299° West 490 564 30,500 -2,432 Descending FlightAware UK
Wed 08:25:54 AM 54.7935 -6.7176 299° West 490 564 30,500 3,462 Level FlightAware UK
Wed 08:26:02 AM 54.7980 -6.7330 299° West 424 488 32,000  Climbing FlightAware ADS-B
Wed 08:26:18 AM 54.8163 -6.7899 299° West 490 564 30,500 -2,647 Descending FlightAware UK
Wed 08:26:36 AM 54.8334 -6.8440 299° West 490 564 30,500 2,647 Level FlightAware UK
Wed 08:26:52 AM 54.8430 -6.8740 299° West 423 487 32,000  Climbing FlightAware ADS-B
Wed 08:26:54 AM 54.8504 -6.8980 299° West 490 564 30,500 -4,500 Descending FlightAware UK
Wed 08:27:12 AM 54.8674 -6.9521 299° West 490 564 30,500  Level FlightAware UK
Wed 08:27:30 AM 54.8844 -7.0061 299° West 488 562 30,500  Level FlightAware UK
Wed 08:27:48 AM 54.9013 -7.0602 298° West 490 564 30,500  Level FlightAware UK
Wed 08:28:06 AM 54.9182 -7.1143 299° West 490 564 30,500  Level FlightAware UK
Wed 08:28:24 AM 54.9350 -7.1683 299° West 490 564 30,500 2,195 Level FlightAware UK
Wed 08:28:47 AM 54.9510 -7.2190 299° West 420 483 32,000  Climbing FlightAware ADS-B
Wed 08:28:48 AM 54.9575 -7.2402 299° West 490 564 30,500 -4,737 Descending FlightAware UK
Wed 08:29:06 AM 54.9743 -7.2941 299° West 490 564 30,500  Level FlightAware UK
Wed 08:29:24 AM 54.9910 -7.3481 298° West 490 564 30,500 3,462 Level FlightAware UK
Wed 08:29:32 AM 54.9940 -7.3570 298° West 419 482 32,000  Climbing FlightAware ADS-B
Wed 08:29:48 AM 55.0129 -7.4195 298° West 488 562 30,500 -2,647 Descending FlightAware UK
Wed 08:30:06 AM 55.0294 -7.4734 298° West 490 564 30,500 3,750 Level FlightAware UK
Wed 08:30:12 AM 55.0320 -7.4800 298° West 422 486 32,000  Climbing FlightAware ADS-B
Wed 08:30:30 AM 55.0514 -7.5454 298° West 490 564 30,500 -2,500 Descending FlightAware UK
Wed 08:30:48 AM 55.0679 -7.5993 298° West 490 564 30,500 3,333 Level FlightAware UK
Wed 08:30:57 AM 55.0710 -7.6090 298° West 420 483 32,000  Climbing FlightAware ADS-B
Wed 08:31:12 AM 55.0899 -7.6712 298° West 490 564 30,500 -2,727 Descending FlightAware UK
Wed 08:31:30 AM 55.1063 -7.7249 298° West 490 564 30,500 3,600 Level FlightAware UK
Wed 08:31:37 AM 55.1080 -7.7250 298° West 420 483 32,000  Climbing FlightAware ADS-B
Wed 08:31:54 AM 55.1282 -7.7966 298° West 488 562 30,500 -2,571 Descending FlightAware UK
Wed 08:32:12 AM 55.1445 -7.8505 298° West 488 562 30,500 3,913 Level FlightAware UK
Wed 08:32:17 AM 55.1450 -7.8510 298° West 419 482 32,000  Climbing FlightAware ADS-B
Wed 08:32:36 AM 55.1661 -7.9223 298° West 488 562 30,500 -2,432 Descending FlightAware UK
Wed 08:32:54 AM 55.1823 -7.9761 298° West 488 562 30,500 3,462 Level FlightAware UK
Wed 08:33:02 AM 55.1850 -7.9820 298° West 419 482 32,000  Climbing FlightAware ADS-B
Wed 08:33:18 AM 55.2038 -8.0480 298° West 488 562 30,500 -2,647 Descending FlightAware UK
Wed 08:33:36 AM 55.2200 -8.1019 298° West 490 564 30,500 3,750 Level FlightAware UK
Wed 08:33:42 AM 55.2210 -8.1050 298° West 418 481 32,000  Climbing FlightAware ADS-B
Wed 08:34:00 AM 55.2416 -8.1739 298° West 490 564 30,500 -2,500 Descending FlightAware UK
Wed 08:34:18 AM 55.2577 -8.2280 298° West 490 564 30,500 4,091 Level FlightAware UK
Wed 08:34:22 AM 55.2580 -8.2280 298° West 418 481 32,000  Climbing FlightAware ADS-B
Wed 08:34:42 AM 55.2793 -8.2999 298° West 490 564 30,500 -2,368 Descending FlightAware UK
Wed 08:35:00 AM 55.2953 -8.3540 297° West 490 564 30,500 3,600 Level FlightAware UK
Wed 08:35:07 AM 55.2980 -8.3600 297° West 417 480 32,000  Climbing FlightAware ADS-B
Wed 08:35:24 AM 55.3166 -8.4261 297° West 490 564 30,500 -2,571 Descending FlightAware UK
Wed 08:35:42 AM 55.3324 -8.4802 297° West 490 564 30,500 3,913 Level FlightAware UK
Wed 08:35:47 AM 55.3340 -8.4860 297° West 413 475 32,000  Climbing FlightAware ADS-B
Wed 08:36:06 AM 55.3535 -8.5524 297° West 490 564 30,500 -2,432 Descending FlightAware UK
Wed 08:36:24 AM 55.3694 -8.6064 297° West 490 564 30,500 4,286 Level FlightAware UK
Wed 08:36:27 AM 55.3700 -8.6070 297° West 412 474 32,000  Climbing FlightAware ADS-B
Wed 08:36:42 AM 55.3851 -8.6604 297° West 490 564 30,500 -2,727 Descending FlightAware UK
Wed 08:37:00 AM 55.4007 -8.7139 297° West 490 564 30,500  Level FlightAware UK
Wed 08:37:18 AM 55.4165 -8.7680 297° West 488 562 30,500  Level FlightAware UK
Wed 08:37:36 AM 55.4322 -8.8221 297° West 488 562 30,500  Level FlightAware UK
Wed 08:37:54 AM 55.4479 -8.8763 297° West 488 562 30,500 3,462 Level FlightAware UK
Wed 08:38:02 AM 55.4500 -8.8830 297° West 411 473 32,000  Climbing FlightAware ADS-B
Wed 08:38:18 AM 55.4690 -8.9486 297° West 490 564 30,500 -2,647 Descending FlightAware UK
Wed 08:38:36 AM 55.4847 -9.0029 297° West 490 564 30,500 452 Level FlightAware UK
Wed 08:41:37 AM 55.6320 -9.5210 297° West 411 473 32,000 417 Climbing FlightAware ADS-B
Wed 08:42:12 AM 55.6650 -9.6360 297° West 411 473 32,000  Level FlightAware ADS-B
Wed 08:43:02 AM 55.7090 -9.7940 296° West 411 473 32,000  Level FlightAware ADS-B
Wed 08:43:47 AM 55.7470 -9.9320 296° West 415 478 32,000  Level FlightAware ADS-B
Wed 08:44:27 AM 55.7790 -10.0480 296° West 415 478 32,000  Level FlightAware ADS-B
Wed 08:45:12 AM 55.8190 -10.1940 296° West 413 475 32,000  Level FlightAware ADS-B
Wed 08:45:52 AM 55.8500 -10.3080 296° West 413 475 32,000  Level FlightAware ADS-B
Wed 08:46:37 AM 55.8890 -10.4510 296° West 412 474 32,000  Level FlightAware ADS-B
Wed 08:47:17 AM 55.9190 -10.5630 296° West 412 474 32,000  Level FlightAware ADS-B
Wed 08:47:57 AM 55.9490 -10.6770 295° West 413 475 32,000  Level FlightAware ADS-B
Wed 08:48:37 AM 55.9770 -10.7830 295° West 413 475 32,000  Level FlightAware ADS-B
Wed 08:49:22 AM 56.0230 -10.9510 296° West 411 473 32,000  Level FlightAware ADS-B
Wed 08:50:17 AM 56.0640 -11.1060 295° West 411 473 32,000  Level FlightAware ADS-B
Wed 08:51:02 AM 56.1030 -11.2600 294° West 404 465 32,000  Level FlightAware ADS-B
Wed 08:51:37 AM 56.1260 -11.3540 294° West 404 465 32,000  Level FlightAware ADS-B
Wed 08:52:22 AM 56.1680 -11.5050 297° West 32,000  Level FlightAware ADS-B
Wed 08:53:07 AM 56.2050 -11.6490 295° West 404 465 32,000  Level FlightAware ADS-B
Wed 08:53:47 AM 56.2350 -11.7690 294° West 404 465 32,000  Level FlightAware ADS-B
Wed 08:54:22 AM 56.2630 -11.8800 294° West 404 465 32,000  Level FlightAware ADS-B
Wed 08:55:07 AM 56.2920 -12.0010 293° West 404 465 32,000  Level FlightAware ADS-B
Wed 08:55:57 AM 56.3230 -12.1330 293° West 404 465 32,000  Level FlightAware ADS-B
Wed 08:56:27 AM 56.3420 -12.2120 293° West 404 465 32,000  Level FlightAware ADS-B
Wed 08:57:17 AM 56.3730 -12.3440 293° West 404 465 32,000  Level FlightAware ADS-B
Wed 08:57:57 AM 56.3970 -12.4500 292° West 404 465 32,000  Level FlightAware ADS-B
Wed 08:58:37 AM 56.4220 -12.5560 293° West 404 465 32,000  Level FlightAware ADS-B
Wed 08:59:27 AM 56.4530 -12.6880 293° West 404 465 32,000  Level FlightAware ADS-B
Wed 09:00:07 AM 56.4780 -12.7940 293° West 404 465 32,000  Level FlightAware ADS-B
Wed 09:00:47 AM 56.5030 -12.9000 293° West 404 465 32,000  Level FlightAware ADS-B
Wed 09:01:27 AM 56.5280 -13.0060 293° West 404 465 32,000  Level FlightAware ADS-B
Wed 09:02:07 AM 56.5530 -13.1120 293° West 404 465 32,000  Level FlightAware ADS-B
Wed 09:02:47 AM 56.5770 -13.2180 292° West 404 465 32,000  Level FlightAware ADS-B
Wed 09:03:37 AM 56.6080 -13.3510 293° West 404 465 32,000  Level FlightAware ADS-B
Wed 09:04:17 AM 56.6330 -13.4570 293° West 404 465 32,000  Level FlightAware ADS-B
Wed 09:06:00 AM 56.7438 -13.7917 301° West  Level Estimated
Wed 09:07:00 AM 56.8080 -13.9876 301° West  Level Estimated
Wed 09:08:00 AM 56.8718 -14.1842 301° West  Level Estimated
Wed 09:09:00 AM 56.9353 -14.3814 301° West  Level Estimated
Wed 09:10:00 AM 56.9985 -14.5794 300° West  Level Estimated
Wed 09:11:00 AM 57.0614 -14.7779 300° West  Level Estimated
Wed 09:12:00 AM 57.1240 -14.9772 300° West  Level Estimated
Wed 09:13:00 AM 57.1863 -15.1771 300° West  Level Estimated
Wed 09:14:00 AM 57.2482 -15.3777 300° West  Level Estimated
Wed 09:15:00 AM 57.3098 -15.5790 300° West  Level Estimated
Wed 09:16:00 AM 57.3712 -15.7809 299° West  Level Estimated
Wed 09:17:00 AM 57.4321 -15.9836 299° West  Level Estimated
Wed 09:18:00 AM 57.4928 -16.1868 299° West  Level Estimated
Wed 09:19:00 AM 57.5531 -16.3908 299° West  Level Estimated
Wed 09:20:00 AM 57.6131 -16.5955 299° West  Level Estimated
Wed 09:21:00 AM 57.6728 -16.8008 299° West  Level Estimated
Wed 09:22:00 AM 57.7328 -17.0092 298° West  Level Estimated
Wed 09:23:00 AM 57.7925 -17.2183 298° West  Level Estimated
Wed 09:24:00 AM 57.8518 -17.4282 298° West  Level Estimated
Wed 09:25:00 AM 57.9108 -17.6387 298° West  Level Estimated
Wed 09:26:00 AM 57.9695 -17.8499 298° West  Level Estimated
Wed 09:27:00 AM 58.0277 -18.0618 298° West  Level Estimated
Wed 09:28:00 AM 58.0857 -18.2743 297° West  Level Estimated
Wed 09:29:00 AM 58.1433 -18.4876 297° West  Level Estimated
Wed 09:30:00 AM 58.2005 -18.7015 297° West  Level Estimated
Wed 09:31:00 AM 58.2574 -18.9162 297° West  Level Estimated
Wed 09:32:00 AM 58.3139 -19.1315 297° West  Level Estimated
Wed 09:33:00 AM 58.3700 -19.3475 296° West  Level Estimated
Wed 09:34:00 AM 58.4258 -19.5642 296° West  Level Estimated
Wed 09:35:00 AM 58.4812 -19.7816 296° West  Level Estimated
Wed 09:36:00 AM 58.5362 -19.9997 296° West  Level Estimated
Wed 09:37:00 AM 58.5909 -20.2185 296° West  Level Estimated
Wed 09:38:00 AM 58.6452 -20.4379 296° West  Level Estimated
Wed 09:39:00 AM 58.6991 -20.6580 295° West  Level Estimated
Wed 09:40:00 AM 58.7527 -20.8788 295° West  Level Estimated
Wed 09:40:00 AM 59.0000 -20.0000 296° West 450 518 32,000  Level ETMS Enhanced Traffic Management System
Wed 09:41:00 AM 58.8059 -21.1003 295° West  Level Estimated
Wed 09:42:00 AM 58.8587 -21.3225 295° West  Level Estimated
Wed 09:43:00 AM 58.9111 -21.5453 295° West  Level Estimated
Wed 09:44:00 AM 58.9631 -21.7688 294° West  Level Estimated
Wed 09:45:00 AM 59.0147 -21.9930 294° West  Level Estimated
Wed 09:46:00 AM 59.3759 -21.5438 295° West 450 518 32,000  Level FlightAware Transoceanic
Wed 09:47:00 AM 59.4281 -21.7672 295° West 450 518 32,000  Level FlightAware Transoceanic
Wed 09:48:00 AM 59.4799 -21.9912 294° West 450 518 32,000  Level FlightAware Transoceanic
Wed 09:49:00 AM 59.5313 -22.2159 294° West 450 518 32,000  Level FlightAware Transoceanic
Wed 09:50:00 AM 59.5823 -22.4412 294° West 450 518 32,000  Level FlightAware Transoceanic
Wed 09:51:00 AM 59.6330 -22.6673 294° West 450 518 32,000  Level FlightAware Transoceanic
Wed 09:52:00 AM 59.6832 -22.8940 294° West 450 518 32,000  Level FlightAware Transoceanic
Wed 09:53:00 AM 59.7331 -23.1214 293° West 450 518 32,000  Level FlightAware Transoceanic
Wed 09:54:00 AM 59.7826 -23.3495 293° West 450 518 32,000  Level FlightAware Transoceanic
Wed 09:55:00 AM 59.8317 -23.5783 293° West 450 518 32,000  Level FlightAware Transoceanic
Wed 09:56:00 AM 59.8803 -23.8077 293° West 450 518 32,000  Level FlightAware Transoceanic
Wed 09:57:00 AM 59.9286 -24.0378 293° West 450 518 32,000  Level FlightAware Transoceanic
Wed 09:58:00 AM 59.9765 -24.2686 292° West 450 518 32,000  Level FlightAware Transoceanic
Wed 09:59:00 AM 60.0240 -24.5000 292° West 450 518 32,000  Level FlightAware Transoceanic
Wed 10:00:00 AM 60.0710 -24.7321 292° West 450 518 32,000  Level FlightAware Transoceanic
Wed 10:01:00 AM 60.1177 -24.9649 292° West 450 518 32,000  Level FlightAware Transoceanic
Wed 10:02:00 AM 60.1639 -25.1983 292° West 450 518 32,000  Level FlightAware Transoceanic
Wed 10:03:00 AM 60.2098 -25.4324 291° West 450 518 32,000  Level FlightAware Transoceanic
Wed 10:04:00 AM 60.2552 -25.6671 291° West 450 518 32,000  Level FlightAware Transoceanic
Wed 10:05:00 AM 60.3002 -25.9025 291° West 450 518 32,000  Level FlightAware Transoceanic
Wed 10:06:00 AM 60.3448 -26.1385 291° West 450 518 32,000  Level FlightAware Transoceanic
Wed 10:07:00 AM 60.3890 -26.3752 291° West 450 518 32,000  Level FlightAware Transoceanic
Wed 10:08:00 AM 60.4327 -26.6125 290° West 450 518 32,000  Level FlightAware Transoceanic
Wed 10:09:00 AM 60.4761 -26.8505 290° West 450 518 32,000  Level FlightAware Transoceanic
Wed 10:10:00 AM 60.5190 -27.0891 290° West 450 518 32,000  Level FlightAware Transoceanic
Wed 10:11:00 AM 60.5614 -27.3283 290° West 450 518 32,000  Level FlightAware Transoceanic
Wed 10:12:00 AM 60.6035 -27.5681 290° West 450 518 32,000  Level FlightAware Transoceanic
Wed 10:13:00 AM 60.6451 -27.8085 289° West 450 518 32,000  Level FlightAware Transoceanic
Wed 10:14:00 AM 60.6863 -28.0496 289° West 450 518 32,000  Level FlightAware Transoceanic
Wed 10:15:00 AM 60.7270 -28.2913 289° West 450 518 32,000  Level FlightAware Transoceanic
Wed 10:16:00 AM 60.7674 -28.5336 289° West 450 518 32,000  Level FlightAware Transoceanic
Wed 10:17:00 AM 60.8072 -28.7765 288° West 450 518 32,000  Level FlightAware Transoceanic
Wed 10:18:00 AM 60.8467 -29.0200 288° West 450 518 32,000  Level FlightAware Transoceanic
Wed 10:19:00 AM 60.8857 -29.2641 288° West 450 518 32,000  Level FlightAware Transoceanic
Wed 10:20:00 AM 60.9242 -29.5088 288° West 450 518 32,000  Level FlightAware Transoceanic
Wed 10:21:00 AM 60.9623 -29.7541 288° West 450 518 32,000  Level FlightAware Transoceanic
Wed 10:22:00 AM 61.0004 -30.0028 288° West  Level FlightAware Approximate
Wed 10:23:00 AM 61.0002 -30.0059 274° West  Level FlightAware Approximate
Wed 10:24:00 AM 61.0094 -30.2662 274° West  Level FlightAware Approximate
Wed 10:25:00 AM 61.0182 -30.5267 274° West  Level FlightAware Approximate
Wed 10:26:00 AM 61.0264 -30.7873 274° West  Level FlightAware Approximate
Wed 10:27:00 AM 61.0341 -31.0480 274° West  Level FlightAware Approximate
Wed 10:28:00 AM 61.0413 -31.3088 273° West  Level FlightAware Approximate
Wed 10:29:00 AM 61.0480 -31.5698 273° West  Level FlightAware Approximate
Wed 10:29:41 AM 61.0000 -30.0000 274° West 484 557 32,000  Level ETMS Enhanced Traffic Management System
Wed 10:30:00 AM 61.0544 -31.8308 273° West  Level FlightAware Approximate
Wed 10:31:00 AM 61.0603 -32.0920 273° West  Level FlightAware Approximate
Wed 10:32:00 AM 61.0657 -32.3532 273° West  Level FlightAware Approximate
Wed 10:33:00 AM 61.0706 -32.6146 272° West  Level FlightAware Approximate
Wed 10:34:00 AM 61.0750 -32.8760 272° West  Level FlightAware Approximate
Wed 10:35:00 AM 61.0880 -33.8868 271° West 484 557 32,000  Level FlightAware Transoceanic
Wed 10:36:00 AM 61.0900 -34.1651 271° West 484 557 32,000  Level FlightAware Transoceanic
Wed 10:37:00 AM 61.0914 -34.4434 270° West 484 557 32,000  Level FlightAware Transoceanic
Wed 10:38:00 AM 61.0923 -34.7217 270° West 484 557 32,000  Level FlightAware Transoceanic
Wed 10:39:00 AM 61.0925 -35.0000 270° West 484 557 32,000  Level FlightAware Transoceanic
Wed 10:40:00 AM 61.0923 -35.2783 270° West 484 557 32,000  Level FlightAware Transoceanic
Wed 10:41:00 AM 61.0914 -35.5566 270° West 484 557 32,000  Level FlightAware Transoceanic
Wed 10:42:00 AM 61.0900 -35.8349 269° West 484 557 32,000  Level FlightAware Transoceanic
Wed 10:43:00 AM 61.0880 -36.1132 269° West 484 557 32,000  Level FlightAware Transoceanic
Wed 10:44:00 AM 61.0854 -36.3914 269° West 484 557 32,000  Level FlightAware Transoceanic
Wed 10:45:00 AM 61.0822 -36.6696 269° West 484 557 32,000  Level FlightAware Transoceanic
Wed 10:46:00 AM 61.0785 -36.9477 268° West 484 557 32,000  Level FlightAware Transoceanic
Wed 10:47:00 AM 61.0742 -37.2257 268° West 484 557 32,000  Level FlightAware Transoceanic
Wed 10:48:00 AM 61.0694 -37.5037 268° West 484 557 32,000  Level FlightAware Transoceanic
Wed 10:49:00 AM 61.0639 -37.7815 268° West 484 557 32,000  Level FlightAware Transoceanic
Wed 10:50:00 AM 61.0579 -38.0593 267° West 484 557 32,000  Level FlightAware Transoceanic
Wed 10:51:00 AM 61.0514 -38.3369 267° West 484 557 32,000  Level FlightAware Transoceanic
Wed 10:52:00 AM 61.0442 -38.6145 267° West 484 557 32,000  Level FlightAware Transoceanic
Wed 10:53:00 AM 61.0365 -38.8919 267° West 484 557 32,000  Level FlightAware Transoceanic
Wed 10:54:00 AM 61.0282 -39.1691 266° West 484 557 32,000  Level FlightAware Transoceanic
Wed 10:55:00 AM 61.0194 -39.4463 266° West 484 557 32,000  Level FlightAware Transoceanic
Wed 10:56:00 AM 61.0100 -39.7232 266° West 484 557 32,000 182 Level FlightAware Transoceanic
Wed 10:57:00 AM 61.0006 -39.9835 266° West  Level FlightAware Approximate
Wed 10:58:00 AM 60.9908 -40.2436 266° West  Level FlightAware Approximate
Wed 10:59:00 AM 61.0078 -40.2273 274° West  Level FlightAware Approximate
Wed 11:00:00 AM 61.0163 -40.4878 274° West  Level FlightAware Approximate
Wed 11:00:30 AM 61.0000 -40.0000 274° West 498 573 33,000  Level ETMS Enhanced Traffic Management System
Wed 11:01:00 AM 61.0243 -40.7484 274° West  Level FlightAware Approximate
Wed 11:02:00 AM 61.0318 -41.0091 274° West  Level FlightAware Approximate
Wed 11:03:00 AM 61.0387 -41.2700 273° West  Level FlightAware Approximate
Wed 11:03:46 AM 61.0667 -41.5667 271° West 480 552 33,000  Level Gander Center
Wed 11:04:00 AM 61.0452 -41.5309 273° West  Level FlightAware Approximate
Wed 11:04:46 AM 61.0833 -41.8500 277° West 480 552 33,000  Level Gander Center
Wed 11:05:00 AM 61.0512 -41.7920 273° West  Level FlightAware Approximate
Wed 11:05:46 AM 61.0833 -42.1333 270° West 490 564 33,000  Level Gander Center
Wed 11:06:00 AM 61.0707 -42.5678 272° West 498 573 33,000  Level FlightAware Transoceanic
Wed 11:06:46 AM 61.0833 -42.4167 270° West 490 564 33,000  Level Gander Center
Wed 11:07:00 AM 61.0755 -42.8537 272° West 498 573 33,000  Level FlightAware Transoceanic
Wed 11:07:46 AM 61.1000 -42.6833 277° West 490 564 33,000  Level Gander Center
Wed 11:08:00 AM 61.0798 -43.1397 272° West 498 573 33,000  Level FlightAware Transoceanic
Wed 11:08:46 AM 61.1000 -42.9667 270° West 490 564 33,000  Level Gander Center
Wed 11:09:00 AM 61.0834 -43.4258 271° West 498 573 33,000  Level FlightAware Transoceanic
Wed 11:09:46 AM 61.1000 -43.2500 270° West 490 564 33,000  Level Gander Center
Wed 11:10:46 AM 61.1000 -43.5333 270° West 490 564 33,000  Level Gander Center
Wed 11:11:46 AM 61.1000 -43.8167 270° West 500 575 33,000  Level Gander Center
Wed 11:12:46 AM 61.1000 -44.1000 270° West 490 564 33,000  Level Gander Center
Wed 11:13:46 AM 61.1167 -44.3667 277° West 490 564 33,000  Level Gander Center
Wed 11:14:46 AM 61.1167 -44.6500 270° West 490 564 33,000  Level Gander Center
Wed 11:15:46 AM 61.1167 -44.9333 270° West 490 564 33,000  Level Gander Center
Wed 11:16:46 AM 61.1167 -45.2167 270° West 490 564 33,000  Level Gander Center
Wed 11:17:46 AM 61.1167 -45.5000 270° West 500 575 33,000  Level Gander Center
Wed 11:18:46 AM 61.1167 -45.7833 270° West 500 575 33,000  Level Gander Center
Wed 11:19:46 AM 61.1167 -46.0667 270° West 500 575 33,000  Level Gander Center
Wed 11:20:46 AM 61.1167 -46.3833 270° West 500 575 33,000  Level Gander Center
Wed 11:21:46 AM 61.1167 -46.6500 270° West 500 575 33,000  Level Gander Center
Wed 11:22:46 AM 61.1000 -46.9333 263° West 500 575 33,000  Level Gander Center
Wed 11:23:46 AM 61.1000 -47.2167 270° West 500 575 33,000  Level Gander Center
Wed 11:24:46 AM 61.1000 -47.5000 270° West 500 575 33,000  Level Gander Center
Wed 11:25:46 AM 61.0833 -47.7833 263° West 490 564 33,000  Level Gander Center
Wed 11:26:46 AM 61.0833 -48.0667 270° West 490 564 33,000  Level Gander Center
Wed 11:27:46 AM 61.0667 -48.3500 263° West 490 564 33,000  Level Gander Center
Wed 11:28:46 AM 61.0667 -48.6000 270° West 490 564 33,000  Level Gander Center
Wed 11:29:46 AM 61.0500 -48.9167 264° West 500 575 33,000  Level Gander Center
Wed 11:30:46 AM 61.0500 -49.2000 270° West 500 575 33,000  Level Gander Center
Wed 11:31:46 AM 61.0333 -49.4667 263° West 500 575 33,000  Level Gander Center
Wed 11:32:46 AM 61.0333 -49.7500 270° West 500 575 33,000  Level Gander Center
Wed 11:33:46 AM 61.0333 -50.0333 270° West 500 575 33,000  Level Gander Center
Wed 11:34:46 AM 61.0333 -50.3000 270° West 500 575 33,000  Level Gander Center
Wed 11:35:46 AM 61.0500 -50.6167 276° West 500 575 33,000  Level Gander Center
Wed 11:36:46 AM 61.0667 -50.8833 277° West 490 564 33,000  Level Gander Center
Wed 11:37:46 AM 61.0667 -51.1667 270° West 490 564 33,000  Level Gander Center
Wed 11:38:46 AM 61.0667 -51.4333 270° West 490 564 33,000  Level Gander Center
Wed 11:39:46 AM 61.1000 -51.7500 282° West 500 575 33,000  Level Gander Center
Wed 11:40:46 AM 61.1000 -52.0167 270° West 490 564 33,000  Level Gander Center
Wed 11:41:46 AM 61.1000 -52.3000 270° West 490 564 33,000  Level Gander Center
Wed 11:42:46 AM 61.1000 -52.5667 270° West 500 575 33,000  Level Gander Center
Wed 11:43:46 AM 61.1167 -52.8500 274° West 500 575 33,000  Level Gander Center
Wed 11:44:00 AM 61.0000 -50.0000 274° West 498 573 33,000  Level ETMS Enhanced Traffic Management System
Wed 11:44:46 AM 61.1167 -53.1500 270° West 500 575 33,000  Level Gander Center
Wed 11:45:46 AM 61.1167 -53.4333 270° West 500 575 33,000  Level Gander Center
Wed 11:46:46 AM 61.1167 -53.7167 270° West 500 575 33,000  Level Gander Center
Wed 11:47:46 AM 61.1333 -54.0167 277° West 500 575 33,000  Level Gander Center
Wed 11:48:46 AM 61.1167 -54.3000 263° West 500 575 33,000  Level Gander Center
Wed 11:49:46 AM 61.1167 -54.5667 270° West 500 575 33,000  Level Gander Center
Wed 11:50:46 AM 61.1167 -54.8500 270° West 500 575 33,000  Level Gander Center
Wed 11:51:46 AM 61.1333 -55.1167 277° West 500 575 33,000  Level Gander Center
Wed 11:52:46 AM 61.1333 -55.4333 270° West 500 575 33,000  Level Gander Center
Wed 11:53:46 AM 61.1167 -55.7000 263° West 490 564 33,000  Level Gander Center
Wed 11:54:46 AM 61.1167 -55.9833 270° West 490 564 33,000  Level Gander Center
Wed 11:55:46 AM 61.1167 -56.2667 270° West 490 564 33,000  Level Gander Center
Wed 11:56:46 AM 61.1167 -56.5333 270° West 490 564 33,000  Level Gander Center
Wed 11:57:46 AM 61.1167 -56.8167 270° West 490 564 33,000  Level Gander Center
Wed 11:58:46 AM 61.1000 -57.1167 264° West 490 564 33,000  Level Gander Center
Wed 11:59:46 AM 61.1000 -57.4000 270° West 490 564 33,000  Level Gander Center
Wed 12:00:46 PM 61.1000 -57.6667 270° West 490 564 33,000 300 Level Gander Center
Wed 12:01:46 PM 61.0833 -57.9500 263° West 490 564 33,600 818 Climbing Gander Center
Wed 12:02:58 PM 61.0667 -58.2167 263° West 480 552 34,800 1,000 Climbing Montreal Center
Wed 12:03:58 PM 61.0667 -58.4667 270° West 480 552 35,800 667 Climbing Montreal Center
Wed 12:04:46 PM 61.0833 -58.7833 276° West 480 552 36,000 111 Climbing Gander Center
Wed 12:05:46 PM 61.0667 -59.0500 263° West 470 541 36,000  Level Gander Center
Wed 12:06:58 PM 61.0500 -59.3000 262° West 470 541 36,000  Level Montreal Center
Wed 12:07:58 PM 61.0500 -59.5167 270° West 470 541 36,000  Level Montreal Center
Wed 12:08:58 PM 61.0167 -59.7833 256° West 470 541 36,000  Level Montreal Center
Wed 12:09:58 PM 61.0167 -60.0333 270° West 460 529 36,000  Level Montreal Center
Wed 12:10:58 PM 61.0000 -60.2833 262° West 460 529 36,000  Level Montreal Center
Wed 12:11:58 PM 60.9833 -60.5833 264° West 460 529 36,000  Level Montreal Center
Wed 12:12:58 PM 60.9667 -60.8333 262° West 460 529 36,000  Level Montreal Center
Wed 12:13:58 PM 60.9500 -61.0500 261° West 450 518 36,000  Level Montreal Center
Wed 12:14:58 PM 60.9500 -61.3333 270° West 440 506 36,000  Level Montreal Center
Wed 12:15:58 PM 60.9167 -61.6167 257° West 450 518 36,000  Level Montreal Center
Wed 12:16:58 PM 60.9000 -61.8833 263° West 440 506 36,000  Level Montreal Center
Wed 12:17:58 PM 60.8667 -62.1000 253° West 440 506 36,000  Level Montreal Center
Wed 12:18:58 PM 60.8667 -62.3500 270° West 430 495 36,000  Level Montreal Center
Wed 12:19:58 PM 60.8333 -62.6000 255° West 430 495 36,000  Level Montreal Center
Wed 12:20:58 PM 60.8167 -62.8500 262° West 440 506 36,000  Level Montreal Center
Wed 12:21:58 PM 60.8000 -63.1167 263° West 430 495 36,000  Level Montreal Center
Wed 12:22:58 PM 60.7833 -63.3333 261° West 440 506 36,000  Level Montreal Center
Wed 12:23:57 PM 60.7667 -63.6333 264° West 440 506 36,000  Level Gander Center
Wed 12:24:57 PM 60.7333 -63.9000 256° West 440 506 36,000  Level Gander Center
Wed 12:25:58 PM 60.7167 -64.0833 260° West 440 506 36,000  Level Montreal Center
Wed 12:26:58 PM 60.7000 -64.3000 261° West 440 506 36,000  Level Montreal Center
Wed 12:27:58 PM 60.6667 -64.5500 255° West 430 495 36,000  Level Montreal Center
Wed 12:28:58 PM 60.6500 -64.8000 262° West 430 495 36,000  Level Montreal Center
Wed 12:29:58 PM 60.6167 -65.0167 253° West 430 495 36,000  Level Montreal Center
Wed 12:30:58 PM 60.5833 -65.2667 255° West 430 495 36,000  Level Montreal Center
Wed 12:31:58 PM 60.5833 -65.5167 270° West 410 472 36,000  Level Montreal Center
Wed 12:32:58 PM 60.5667 -65.7167 260° West 410 472 36,000  Level Montreal Center
Wed 12:33:58 PM 60.5333 -65.9667 255° West 430 495 36,000  Level Montreal Center
Wed 12:34:58 PM 60.5000 -66.1833 253° West 420 483 36,000  Level Montreal Center
Wed 12:35:58 PM 60.4667 -66.4333 255° West 420 483 36,000  Level Montreal Center
Wed 12:36:58 PM 60.4500 -66.6500 261° West 410 472 36,000  Level Montreal Center
Wed 12:37:58 PM 60.4333 -66.8667 261° West 410 472 36,000  Level Montreal Center
Wed 12:38:58 PM 60.4000 -67.1000 254° West 400 460 36,000  Level Montreal Center
Wed 12:39:58 PM 60.3833 -67.3167 261° West 420 483 36,000  Level Montreal Center
Wed 12:40:58 PM 60.3500 -67.5333 253° West 410 472 36,000  Level Montreal Center
Wed 12:41:58 PM 60.3167 -67.7833 255° West 410 472 36,000  Level Montreal Center
Wed 12:42:58 PM 60.2833 -67.9833 251° West 410 472 36,000  Level Montreal Center
Wed 12:43:58 PM 60.2667 -68.2333 262° West 420 483 36,000  Level Montreal Center
Wed 12:44:58 PM 60.2333 -68.4500 253° West 410 472 36,000  Level Montreal Center
Wed 12:45:58 PM 60.2000 -68.6833 254° West 410 472 36,000  Level Montreal Center
Wed 12:46:58 PM 60.1833 -68.9000 261° West 400 460 36,000  Level Montreal Center
Wed 12:47:58 PM 60.1500 -69.1000 252° West 410 472 36,000  Level Montreal Center
Wed 12:48:58 PM 60.1167 -69.3500 255° West 420 483 36,000  Level Montreal Center
Wed 12:49:58 PM 60.0833 -69.5500 252° West 400 460 36,000  Level Montreal Center
Wed 12:50:58 PM 60.0667 -69.7667 261° West 410 472 36,000  Level Montreal Center
Wed 12:51:58 PM 60.0333 -70.0000 254° West 420 483 36,000  Level Montreal Center
Wed 12:52:58 PM 60.0500 -70.2333 278° West 410 472 36,000  Level Montreal Center
Wed 12:53:58 PM 60.0333 -70.4833 263° West 420 483 36,000  Level Montreal Center
Wed 12:54:58 PM 60.0500 -70.7167 278° West 410 472 36,000  Level Montreal Center
Wed 12:55:58 PM 60.0500 -70.9500 270° West 410 472 36,000  Level Montreal Center
Wed 12:56:58 PM 60.0667 -71.1500 280° West 420 483 36,000  Level Montreal Center
Wed 12:57:58 PM 60.0667 -71.3833 270° West 400 460 36,000  Level Montreal Center
Wed 12:58:58 PM 60.0833 -71.6167 278° West 390 449 36,000  Level Montreal Center
Wed 12:59:58 PM 60.0833 -71.8167 270° West 390 449 36,000  Level Montreal Center
Wed 01:00:58 PM 60.1000 -72.0500 278° West 390 449 36,000  Level Montreal Center
Wed 01:01:58 PM 60.1000 -72.2500 270° West 390 449 36,000  Level Montreal Center
Wed 01:02:58 PM 60.0833 -72.4833 262° West 390 449 36,000  Level Montreal Center
Wed 01:03:58 PM 60.1000 -72.7000 279° West 390 449 36,000  Level Montreal Center
Wed 01:04:58 PM 60.1000 -72.9333 270° West 400 460 36,000  Level Montreal Center
Wed 01:05:58 PM 60.1000 -73.1333 270° West 400 460 36,000  Level Montreal Center
Wed 01:06:58 PM 60.1000 -73.3667 270° West 400 460 36,000  Level Montreal Center
Wed 01:07:58 PM 60.1167 -73.6000 278° West 390 449 36,000  Level Montreal Center
Wed 01:08:58 PM 60.1167 -73.8000 270° West 390 449 36,000  Level Montreal Center
Wed 01:09:58 PM 60.1167 -74.0333 270° West 390 449 36,000  Level Montreal Center
Wed 01:10:58 PM 60.1167 -74.2333 270° West 400 460 36,000  Level Montreal Center
Wed 01:11:58 PM 60.1167 -74.4833 270° West 390 449 36,000  Level Montreal Center
Wed 01:12:58 PM 60.1167 -74.7167 270° West 410 472 36,000  Level Montreal Center
Wed 01:13:58 PM 60.1167 -74.9167 270° West 400 460 36,000  Level Montreal Center
Wed 01:14:58 PM 60.1167 -75.1500 270° West 400 460 36,000  Level Montreal Center
Wed 01:15:58 PM 60.1167 -75.3833 270° West 410 472 36,000  Level Montreal Center
Wed 01:16:58 PM 60.1167 -75.6167 270° West 410 472 36,000  Level Montreal Center
Wed 01:17:58 PM 60.1167 -75.8167 270° West 400 460 36,000  Level Montreal Center
Wed 01:19:07 PM 60.0667 -75.9500 233° Southwest 410 472 36,000  Level Edmonton Center
Wed 01:19:58 PM 60.1167 -76.3000 286° West 400 460 36,000  Level Montreal Center
Wed 01:20:58 PM 60.1000 -76.5333 262° West 410 472 36,000  Level Montreal Center
Wed 01:21:58 PM 60.1000 -76.7333 270° West 410 472 36,000  Level Montreal Center
Wed 01:22:58 PM 60.1000 -77.0000 270° West 410 472 36,000  Level Montreal Center
Wed 01:23:58 PM 60.1000 -77.2333 270° West 420 483 36,000  Level Montreal Center
Wed 01:24:58 PM 60.1000 -77.4667 270° West 430 495 36,000  Level Montreal Center
Wed 01:25:58 PM 60.0833 -77.7000 262° West 430 495 36,000  Level Montreal Center
Wed 01:26:58 PM 60.0833 -77.9500 270° West 430 495 36,000  Level Montreal Center
Wed 01:27:58 PM 60.0833 -78.2167 270° West 450 518 36,000  Level Montreal Center
Wed 01:28:58 PM 60.0667 -78.4500 262° West 450 518 36,000  Level Montreal Center
Wed 01:29:58 PM 60.0500 -78.7167 263° West 460 529 36,000  Level Montreal Center
Wed 01:30:58 PM 60.0500 -78.9500 270° West 460 529 36,000  Level Montreal Center
Wed 01:31:58 PM 60.0500 -79.2167 270° West 460 529 36,000  Level Montreal Center
Wed 01:32:58 PM 60.0333 -79.4833 263° West 460 529 36,000  Level Montreal Center
Wed 01:33:58 PM 60.0333 -79.7167 270° West 460 529 36,000  Level Montreal Center
Wed 01:34:58 PM 60.0000 -79.9833 256° West 460 529 36,000  Level Montreal Center
Wed 01:35:58 PM 59.9833 -80.2167 262° West 450 518 36,000  Level Montreal Center
Wed 01:36:58 PM 59.9500 -80.4833 256° West 450 518 36,000  Level Montreal Center
Wed 01:37:58 PM 59.9000 -80.7167 247° West 430 495 36,000  Level Montreal Center
Wed 01:38:58 PM 59.8833 -80.9500 262° West 450 518 36,000  Level Montreal Center
Wed 01:39:58 PM 59.8333 -81.1667 245° Southwest 440 506 36,000  Level Montreal Center
Wed 01:40:58 PM 59.7833 -81.4333 250° West 450 518 36,000  Level Montreal Center
Wed 01:41:58 PM 59.7500 -81.6667 254° West 450 518 36,000  Level Montreal Center
Wed 01:42:58 PM 59.7167 -81.8833 253° West 440 506 36,000  Level Montreal Center
Wed 01:43:58 PM 59.6833 -82.1167 254° West 450 518 36,000  Level Montreal Center
Wed 01:44:58 PM 59.6333 -82.3500 247° West 450 518 36,000  Level Montreal Center
Wed 01:45:58 PM 59.5833 -82.6000 249° West 450 518 36,000  Level Montreal Center
Wed 01:46:58 PM 59.5500 -82.8333 254° West 450 518 36,000  Level Montreal Center
Wed 01:47:58 PM 59.5167 -83.0500 253° West 450 518 36,000  Level Montreal Center
Wed 01:48:58 PM 59.4667 -83.3000 249° West 450 518 36,000  Level Montreal Center
Wed 01:49:58 PM 59.4167 -83.5333 247° West 460 529 36,000  Level Montreal Center
Wed 01:50:58 PM 59.3833 -83.7500 253° West 450 518 36,000  Level Montreal Center
Wed 01:51:58 PM 59.3333 -84.0167 250° West 460 529 36,000  Level Montreal Center
Wed 01:52:58 PM 59.3000 -84.2667 255° West 460 529 36,000  Level Montreal Center
Wed 01:53:58 PM 59.2500 -84.4833 246° West 460 529 36,000  Level Montreal Center
Wed 01:54:58 PM 59.2167 -84.6667 251° West 460 529 36,000  Level Montreal Center
Wed 01:56:07 PM 59.1167 -84.8000 214° Southwest 450 518 36,000  Level Edmonton Center
Wed 01:57:07 PM 59.0667 -85.0667 250° West 460 529 36,000  Level Edmonton Center
Wed 01:58:07 PM 59.0167 -85.3000 247° West 450 518 36,000  Level Edmonton Center
Wed 01:59:07 PM 58.9833 -85.5000 252° West 460 529 36,000  Level Edmonton Center
Wed 02:00:07 PM 58.9333 -85.7333 248° West 450 518 36,000  Level Edmonton Center
Wed 02:01:07 PM 58.8833 -85.9667 248° West 450 518 36,000  Level Edmonton Center
Wed 02:02:07 PM 58.8333 -86.1833 246° West 450 518 36,000  Level Edmonton Center
Wed 02:03:07 PM 58.7833 -86.4167 248° West 450 518 36,000  Level Edmonton Center
Wed 02:04:07 PM 58.7333 -86.6500 248° West 450 518 36,000  Level Edmonton Center
Wed 02:05:07 PM 58.7000 -86.8833 255° West 450 518 36,000  Level Edmonton Center
Wed 02:06:07 PM 58.6500 -87.1000 246° West 440 506 36,000  Level Edmonton Center
Wed 02:07:07 PM 58.5833 -87.3333 241° Southwest 450 518 36,000  Level Edmonton Center
Wed 02:08:07 PM 58.5500 -87.5667 255° West 450 518 36,000  Level Edmonton Center
Wed 02:09:07 PM 58.4833 -87.7500 235° Southwest 450 518 36,000  Level Edmonton Center
Wed 02:10:07 PM 58.4333 -87.9833 248° West 440 506 36,000  Level Edmonton Center
Wed 02:11:07 PM 58.4000 -88.2000 254° West 450 518 36,000  Level Edmonton Center
Wed 02:12:07 PM 58.3333 -88.4333 242° Southwest 450 518 36,000  Level Edmonton Center
Wed 02:13:07 PM 58.2833 -88.6500 246° West 450 518 36,000  Level Edmonton Center
Wed 02:14:07 PM 58.2333 -88.8833 248° West 440 506 36,000  Level Edmonton Center
Wed 02:15:07 PM 58.1833 -89.1000 246° West 440 506 36,000  Level Edmonton Center
Wed 02:16:07 PM 58.1333 -89.2833 243° Southwest 450 518 36,000  Level Edmonton Center
Wed 02:17:07 PM 58.0833 -89.5167 248° West 440 506 36,000  Level Edmonton Center
Wed 02:18:07 PM 58.0333 -89.7167 245° Southwest 440 506 36,000  Level Edmonton Center
Wed 02:19:07 PM 57.9833 -89.9167 245° Southwest 430 495 36,000  Level Edmonton Center
Wed 02:20:07 PM 57.9167 -90.1333 240° Southwest 450 518 36,000  Level Edmonton Center
Wed 02:21:07 PM 57.8667 -90.3167 243° Southwest 440 506 36,000  Level Edmonton Center
Wed 02:22:07 PM 57.8000 -90.5333 240° Southwest 440 506 36,000  Level Edmonton Center
Wed 02:23:07 PM 57.7333 -90.7333 238° Southwest 440 506 36,000  Level Edmonton Center
Wed 02:24:07 PM 57.6833 -90.9500 247° West 440 506 36,000  Level Edmonton Center
Wed 02:25:07 PM 57.6167 -91.1667 240° Southwest 440 506 36,000  Level Edmonton Center
Wed 02:26:07 PM 57.5667 -91.3500 243° Southwest 440 506 36,000  Level Edmonton Center
Wed 02:27:07 PM 57.5000 -91.5667 240° Southwest 440 506 36,000  Level Edmonton Center
Wed 02:28:07 PM 57.4333 -91.7500 236° Southwest 440 506 36,000  Level Edmonton Center
Wed 02:29:07 PM 57.3833 -91.9667 247° West 430 495 36,000  Level Edmonton Center
Wed 02:30:07 PM 57.3167 -92.1500 236° Southwest 440 506 36,000  Level Edmonton Center
Wed 02:31:07 PM 57.2667 -92.3500 245° Southwest 440 506 36,000  Level Edmonton Center
Wed 02:32:07 PM 57.2000 -92.5333 236° Southwest 430 495 36,000  Level Edmonton Center
Wed 02:33:07 PM 57.1333 -92.7500 241° Southwest 430 495 36,000  Level Edmonton Center
Wed 02:34:07 PM 57.0667 -92.9333 236° Southwest 440 506 36,000  Level Edmonton Center
Wed 02:35:07 PM 57.0167 -93.1333 245° Southwest 440 506 36,000  Level Edmonton Center
Wed 02:36:07 PM 56.9500 -93.3167 236° Southwest 440 506 36,000  Level Edmonton Center
Wed 02:37:07 PM 56.8833 -93.5333 241° Southwest 440 506 36,000  Level Edmonton Center
Wed 02:38:07 PM 56.8167 -93.7000 234° Southwest 440 506 36,000  Level Edmonton Center
Wed 02:39:07 PM 56.7500 -93.9167 241° Southwest 440 506 36,000  Level Edmonton Center
Wed 02:40:07 PM 56.6833 -94.1167 239° Southwest 440 506 36,000  Level Edmonton Center
Wed 02:41:07 PM 56.6167 -94.2833 234° Southwest 440 506 36,000  Level Edmonton Center
Wed 02:42:07 PM 56.5500 -94.5000 241° Southwest 450 518 36,000  Level Edmonton Center
Wed 02:43:07 PM 56.4833 -94.6667 234° Southwest 450 518 36,000  Level Edmonton Center
Wed 02:44:07 PM 56.4167 -94.8833 241° Southwest 450 518 36,000  Level Edmonton Center
Wed 02:45:07 PM 56.3500 -95.0833 239° Southwest 450 518 36,000  Level Edmonton Center
Wed 02:46:07 PM 56.2833 -95.2500 234° Southwest 450 518 36,000  Level Edmonton Center
Wed 02:47:07 PM 56.2000 -95.4500 233° Southwest 450 518 36,000  Level Edmonton Center
Wed 02:48:07 PM 56.1333 -95.6333 237° Southwest 450 518 36,000  Level Edmonton Center
Wed 02:49:07 PM 56.0833 -95.8333 246° West 450 518 36,000  Level Edmonton Center
Wed 02:50:07 PM 56.0167 -96.0333 239° Southwest 450 518 36,000  Level Edmonton Center
Wed 02:51:07 PM 55.9333 -96.2000 228° Southwest 450 518 36,000  Level Edmonton Center
Wed 02:52:07 PM 55.8667 -96.4000 239° Southwest 450 518 36,000  Level Edmonton Center
Wed 02:53:07 PM 55.8000 -96.6000 239° Southwest 450 518 36,000  Level Edmonton Center
Wed 02:54:07 PM 55.7167 -96.7667 228° Southwest 450 518 36,000  Level Edmonton Center
Wed 02:55:07 PM 55.6500 -96.9500 237° Southwest 450 518 36,000  Level Edmonton Center
Wed 02:56:07 PM 55.5833 -97.1500 240° Southwest 450 518 36,000  Level Edmonton Center
Wed 02:57:07 PM 55.5000 -97.3167 229° Southwest 450 518 36,000  Level Edmonton Center
Wed 02:58:07 PM 55.4500 -97.5167 246° West 450 518 36,000  Level Edmonton Center
Wed 02:59:07 PM 55.3833 -97.6667 232° Southwest 450 518 36,000  Level Edmonton Center
Wed 03:00:07 PM 55.3000 -97.8667 234° Southwest 450 518 36,000  Level Edmonton Center
Wed 03:01:07 PM 55.2333 -98.0667 240° Southwest 450 518 36,000  Level Edmonton Center
Wed 03:02:07 PM 55.1500 -98.2500 232° Southwest 450 518 36,000  Level Edmonton Center
Wed 03:03:07 PM 55.0833 -98.4167 235° Southwest 450 518 36,000  Level Edmonton Center
Wed 03:04:07 PM 55.0000 -98.6000 232° Southwest 450 518 36,000  Level Edmonton Center
Wed 03:05:07 PM 54.9333 -98.8000 240° Southwest 460 529 36,000  Level Edmonton Center
Wed 03:06:07 PM 54.8500 -98.9833 232° Southwest 460 529 36,000  Level Edmonton Center
Wed 03:11:52 PM 54.4350 -100.0530 232° Southwest 467 537 36,000  Level FlightAware ADS-B
Wed 03:12:32 PM 54.3840 -100.1720 234° Southwest 467 537 36,000  Level FlightAware ADS-B
Wed 03:13:12 PM 54.3300 -100.2960 233° Southwest 466 536 36,000  Level FlightAware ADS-B
Wed 03:13:57 PM 54.2780 -100.4170 234° Southwest 466 536 36,000  Level FlightAware ADS-B
Wed 03:14:42 PM 54.2180 -100.5490 232° Southwest 467 537 36,000  Level FlightAware ADS-B
Wed 03:15:22 PM 54.1670 -100.6640 233° Southwest 468 539 36,000  Level FlightAware ADS-B
Wed 03:16:02 PM 54.1150 -100.7820 233° Southwest 470 541 36,000  Level FlightAware ADS-B
Wed 03:16:37 PM 54.0710 -100.8820 233° Southwest 470 541 36,000  Level FlightAware ADS-B
Wed 03:17:32 PM 53.9960 -101.0500 233° Southwest 470 541 36,000  Level FlightAware ADS-B
Wed 03:18:22 PM 53.9230 -101.1870 228° Southwest 471 542 36,000  Level FlightAware ADS-B
Wed 03:19:17 PM 53.8540 -101.3420 233° Southwest 472 543 36,000  Level FlightAware ADS-B
Wed 03:20:02 PM 53.7870 -101.4800 231° Southwest 472 543 36,000  Level FlightAware ADS-B
Wed 03:20:42 PM 53.7280 -101.6020 231° Southwest 473 544 36,000  Level FlightAware ADS-B
Wed 03:21:17 PM 53.6870 -101.6830 229° Southwest 473 544 36,000  Level FlightAware ADS-B
Wed 03:22:07 PM 53.6110 -101.8350 230° Southwest 474 545 36,000  Level FlightAware ADS-B
Wed 03:22:47 PM 53.5580 -101.9390 229° Southwest 475 547 36,000  Level FlightAware ADS-B
Wed 03:23:47 PM 53.4760 -102.1010 230° Southwest 476 548 36,000  Level FlightAware ADS-B
Wed 03:24:42 PM 53.3930 -102.2650 230° Southwest 478 550 36,000  Level FlightAware ADS-B
Wed 03:25:37 PM 53.3150 -102.4150 229° Southwest 478 550 36,000  Level FlightAware ADS-B
Wed 03:26:12 PM 53.2630 -102.5150 229° Southwest 478 550 36,000  Level FlightAware ADS-B
Wed 03:27:02 PM 53.2010 -102.6330 229° Southwest 478 550 36,000  Level FlightAware ADS-B
Wed 03:27:22 PM 53.1770 -102.6810 230° Southwest 478 550 36,000  Level FlightAware ADS-B
Wed 03:28:12 PM 53.1150 -102.7990 229° Southwest 478 550 36,000  Level FlightAware ADS-B
Wed 03:28:52 PM 53.0660 -102.8930 229° Southwest 478 550 36,000  Level FlightAware ADS-B
Wed 03:29:32 PM 53.0160 -102.9880 229° Southwest 478 550 36,000  Level FlightAware ADS-B
Wed 03:30:12 PM 52.9670 -103.0820 229° Southwest 478 550 36,000  Level FlightAware ADS-B
Wed 03:31:02 PM 52.9050 -103.2000 229° Southwest 478 550 36,000  Level FlightAware ADS-B
Wed 03:31:42 PM 52.8560 -103.2940 229° Southwest 478 550 36,000  Level FlightAware ADS-B
Wed 03:32:22 PM 52.8060 -103.3880 229° Southwest 478 550 36,000  Level FlightAware ADS-B
Wed 03:33:02 PM 52.7570 -103.4810 229° Southwest 478 550 36,000  Level FlightAware ADS-B
Wed 03:33:42 PM 52.7080 -103.5750 229° Southwest 478 550 36,000  Level FlightAware ADS-B
Wed 03:34:22 PM 52.6580 -103.6690 229° Southwest 478 550 36,000  Level FlightAware ADS-B
Wed 03:35:02 PM 52.6090 -103.7620 229° Southwest 478 550 36,000  Level FlightAware ADS-B
Wed 03:35:42 PM 52.5600 -103.8550 229° Southwest 478 550 36,000  Level FlightAware ADS-B
Wed 03:36:45 PM 52.3167 -104.2833 229° Southwest 480 552 36,000  Level Winnipeg Center
Wed 03:37:45 PM 52.2167 -104.4333 223° Southwest 480 552 36,000  Level Winnipeg Center
Wed 03:38:45 PM 52.1333 -104.6167 234° Southwest 480 552 36,000  Level Winnipeg Center
Wed 03:39:45 PM 52.0500 -104.7833 231° Southwest 480 552 36,000  Level Winnipeg Center
Wed 03:40:45 PM 51.9500 -104.9333 223° Southwest 480 552 36,000  Level Winnipeg Center
Wed 03:41:45 PM 51.8500 -105.1000 226° Southwest 490 564 36,000  Level Winnipeg Center
Wed 03:42:45 PM 51.7667 -105.2500 228° Southwest 490 564 36,000  Level Winnipeg Center
Wed 03:43:45 PM 51.6667 -105.4333 229° Southwest 490 564 36,000  Level Winnipeg Center
Wed 03:44:45 PM 51.5833 -105.5667 225° Southwest 490 564 36,000  Level Winnipeg Center
Wed 03:45:45 PM 51.4833 -105.7500 229° Southwest 490 564 36,000  Level Winnipeg Center
Wed 03:52:07 PM 50.9760 -106.5960 229° Southwest 490 564 36,000  Level FlightAware ADS-B
Wed 03:53:02 PM 50.8870 -106.7430 226° Southwest 490 564 36,000  Level FlightAware ADS-B
Wed 03:54:12 PM 50.8010 -106.8840 226° Southwest 490 564 36,000  Level FlightAware ADS-B
Wed 03:54:52 PM 50.7480 -106.9720 226° Southwest 490 564 36,000  Level FlightAware ADS-B
Wed 03:55:32 PM 50.6940 -107.0590 226° Southwest 490 564 36,000  Level FlightAware ADS-B
Wed 03:56:12 PM 50.6400 -107.1470 226° Southwest 490 564 36,000  Level FlightAware ADS-B
Wed 03:57:02 PM 50.5740 -107.2560 226° Southwest 490 564 36,000  Level FlightAware ADS-B
Wed 03:57:42 PM 50.5200 -107.3430 226° Southwest 490 564 36,000  Level FlightAware ADS-B
Wed 03:58:22 PM 50.4660 -107.4300 226° Southwest 490 564 36,000  Level FlightAware ADS-B
Wed 03:59:02 PM 50.4130 -107.5170 226° Southwest 490 564 36,000  Level FlightAware ADS-B
Wed 03:59:52 PM 50.3460 -107.6260 226° Southwest 490 564 36,000  Level FlightAware ADS-B
Wed 04:00:32 PM 50.2920 -107.7130 226° Southwest 490 564 36,000  Level FlightAware ADS-B
Wed 04:01:12 PM 50.2390 -107.8000 226° Southwest 490 564 36,000  Level FlightAware ADS-B
Wed 04:01:52 PM 50.1850 -107.8860 226° Southwest 490 564 36,000  Level FlightAware ADS-B
Wed 04:02:32 PM 50.1320 -107.9730 226° Southwest 490 564 36,000  Level FlightAware ADS-B
Wed 04:03:02 PM 50.0920 -108.0380 226° Southwest 490 564 36,000  Level FlightAware ADS-B
Wed 04:03:45 PM 49.7333 -108.4833 226° Southwest 490 564 36,000  Level Winnipeg Center
Wed 04:04:45 PM 49.6333 -108.6167 221° Southwest 510 587 36,000  Level Winnipeg Center
Wed 04:05:45 PM 49.5167 -108.7667 220° Southwest 510 587 36,000  Level Winnipeg Center
Wed 04:06:45 PM 49.4167 -108.9000 221° Southwest 510 587 36,000  Level Winnipeg Center
Wed 04:07:45 PM 49.3167 -109.0667 227° Southwest 500 575 36,000  Level Winnipeg Center
Wed 04:08:45 PM 49.2000 -109.1833 213° Southwest 510 587 36,000  Level Winnipeg Center
Wed 04:11:14 PM 48.9719 -109.4994 222° Southwest 506 582 36,000  Level Salt Lake Center
Wed 04:12:16 PM 48.8647 -109.6381 220° Southwest 506 582 36,000  Level Salt Lake Center
Wed 04:13:18 PM 48.7572 -109.7767 220° Southwest 508 585 36,000  Level Salt Lake Center
Wed 04:14:19 PM 48.6494 -109.9161 221° Southwest 511 588 36,000  Level Salt Lake Center
Wed 04:15:21 PM 48.5411 -110.0544 220° Southwest 511 588 36,000  Level Salt Lake Center
Wed 04:16:22 PM 48.4125 -110.2219 221° Southwest 512 589 36,000  Level Salt Lake Center
Wed 04:17:24 PM 48.3028 -110.3581 220° Southwest 512 589 36,000  Level Salt Lake Center
Wed 04:18:25 PM 48.1953 -110.4947 220° Southwest 509 586 36,000  Level Salt Lake Center
Wed 04:19:26 PM 48.0856 -110.6314 220° Southwest 512 589 36,000  Level Salt Lake Center
Wed 04:20:28 PM 47.9767 -110.7675 220° Southwest 512 589 36,000  Level Salt Lake Center
Wed 04:21:29 PM 47.8667 -110.9036 220° Southwest 515 593 36,000  Level Salt Lake Center
Wed 04:22:31 PM 47.7564 -111.0406 220° Southwest 515 593 36,000  Level Salt Lake Center
Wed 04:23:32 PM 47.6356 -111.1889 220° Southwest 516 594 36,000  Level Salt Lake Center
Wed 04:24:34 PM 47.5247 -111.3250 220° Southwest 517 595 36,000  Level Salt Lake Center
Wed 04:25:35 PM 47.4219 -111.4711 224° Southwest 518 596 36,000  Level Salt Lake Center
Wed 04:26:37 PM 47.3200 -111.6225 225° Southwest 519 597 36,000  Level Salt Lake Center
Wed 04:27:38 PM 47.2186 -111.7739 225° Southwest 520 598 36,000  Level Salt Lake Center
Wed 04:28:40 PM 47.0961 -111.9569 226° Southwest 524 603 36,000  Level Salt Lake Center
Wed 04:29:41 PM 46.9928 -112.1078 225° Southwest 524 603 36,000  Level Salt Lake Center
Wed 04:30:42 PM 46.8906 -112.2572 225° Southwest 522 601 36,000  Level Salt Lake Center
Wed 04:31:44 PM 46.7875 -112.4056 225° Southwest 522 601 36,000  Level Salt Lake Center
Wed 04:32:45 PM 46.6847 -112.5536 225° Southwest 521 600 36,000  Level Salt Lake Center
Wed 04:33:47 PM 46.5822 -112.7022 225° Southwest 521 600 36,000 -49 Level Salt Lake Center
Wed 04:34:48 PM 46.4772 -112.8492 224° Southwest 524 603 35,900  Descending Salt Lake Center
Wed 04:35:50 PM 46.3603 -113.0178 225° Southwest 524 603 36,000 49 Climbing Salt Lake Center
Wed 04:36:51 PM 46.2575 -113.1631 224° Southwest 520 598 36,000  Level Salt Lake Center
Wed 04:37:53 PM 46.1442 -113.3211 224° Southwest 519 597 36,000  Level Salt Lake Center
Wed 04:38:55 PM 46.0511 -113.4497 224° Southwest 517 595 36,000  Level Salt Lake Center
Wed 04:39:56 PM 45.9475 -113.5908 223° Southwest 516 594 36,000  Level Salt Lake Center
Wed 04:40:58 PM 45.8342 -113.7475 224° Southwest 514 592 36,000  Level Salt Lake Center
Wed 04:41:59 PM 45.7306 -113.8917 224° Southwest 518 596 36,000  Level Salt Lake Center
Wed 04:43:01 PM 45.6264 -114.0322 223° Southwest 517 595 36,000  Level Salt Lake Center
Wed 04:44:02 PM 45.5175 -114.1789 223° Southwest 518 596 36,000  Level Salt Lake Center
Wed 04:45:04 PM 45.4017 -114.3369 224° Southwest 517 595 36,000  Level Salt Lake Center
Wed 04:46:05 PM 45.3017 -114.4697 223° Southwest 516 594 36,000  Level Salt Lake Center
Wed 04:47:07 PM 45.1850 -114.6261 223° Southwest 516 594 36,000  Level Salt Lake Center
Wed 04:48:08 PM 45.0856 -114.7583 223° Southwest 513 590 36,000  Level Salt Lake Center
Wed 04:49:10 PM 44.9856 -114.8911 223° Southwest 515 593 36,000  Level Salt Lake Center
Wed 04:50:11 PM 44.8681 -115.0433 223° Southwest 513 590 36,000  Level Salt Lake Center
Wed 04:51:13 PM 44.7675 -115.1750 223° Southwest 514 592 36,000  Level Salt Lake Center
Wed 04:52:15 PM 44.6506 -115.3286 223° Southwest 515 593 36,000  Level Salt Lake Center
Wed 04:53:16 PM 44.5500 -115.4586 223° Southwest 512 589 36,000  Level Salt Lake Center
Wed 04:54:18 PM 44.4483 -115.5894 223° Southwest 514 592 36,000  Level Salt Lake Center
Wed 04:55:19 PM 44.3300 -115.7397 222° Southwest 511 588 36,000  Level Salt Lake Center
Wed 04:56:21 PM 44.2283 -115.8681 222° Southwest 509 586 36,000  Level Salt Lake Center
Wed 04:57:22 PM 44.1258 -115.9975 222° Southwest 513 590 36,000  Level Salt Lake Center
Wed 04:58:24 PM 44.0083 -116.1464 222° Southwest 507 583 36,000  Level Salt Lake Center
Wed 04:59:25 PM 43.9072 -116.2725 222° Southwest 507 583 36,000  Level Salt Lake Center
Wed 05:00:27 PM 43.7892 -116.4189 222° Southwest 507 583 36,000  Level Salt Lake Center
Wed 05:01:29 PM 43.6881 -116.5444 222° Southwest 507 583 36,000  Level Salt Lake Center
Wed 05:02:30 PM 43.5883 -116.6683 222° Southwest 502 578 36,000  Level Salt Lake Center
Wed 05:03:32 PM 43.4706 -116.8125 222° Southwest 507 583 36,000  Level Salt Lake Center
Wed 05:04:33 PM 43.3697 -116.9353 222° Southwest 506 582 36,000  Level Salt Lake Center
Wed 05:05:35 PM 43.2528 -117.0781 222° Southwest 507 583 36,000  Level Salt Lake Center
Wed 05:06:36 PM 43.1517 -117.1983 221° Southwest 502 578 36,000  Level Salt Lake Center
Wed 05:07:38 PM 43.0511 -117.3214 222° Southwest 507 583 36,000  Level Salt Lake Center
Wed 05:08:40 PM 42.9331 -117.4606 221° Southwest 503 579 36,000  Level Salt Lake Center
Wed 05:09:41 PM 42.8333 -117.5808 222° Southwest 501 577 36,000  Level Salt Lake Center
Wed 05:10:43 PM 42.7161 -117.7206 221° Southwest 501 577 36,000  Level Salt Lake Center
Wed 05:11:44 PM 42.6164 -117.8394 221° Southwest 500 575 36,000  Level Salt Lake Center
Wed 05:12:46 PM 42.4694 -117.9233 203° Southwest 520 598 36,000  Level Salt Lake Center
Wed 05:13:47 PM 42.3369 -117.9800 198° South 521 600 36,000  Level Salt Lake Center
Wed 05:14:49 PM 42.2033 -118.0386 198° South 520 598 36,000  Level Salt Lake Center
Wed 05:15:50 PM 42.0525 -118.1050 198° South 513 590 36,000  Level Salt Lake Center
Wed 05:16:52 PM 41.9219 -118.1611 198° South 515 593 36,000  Level Salt Lake Center
Wed 05:17:54 PM 41.7711 -118.2286 198° South 512 589 36,000  Level Salt Lake Center
Wed 05:18:55 PM 41.6411 -118.2833 197° South 512 589 36,000  Level Salt Lake Center
Wed 05:19:57 PM 41.5114 -118.3400 198° South 514 592 36,000  Level Salt Lake Center
Wed 05:20:59 PM 41.3600 -118.4042 198° South 512 589 36,000  Level Salt Lake Center
Wed 05:22:00 PM 41.2300 -118.4589 198° South 512 589 36,000  Level Salt Lake Center
Wed 05:23:02 PM 41.0792 -118.5231 198° South 511 588 36,000  Level Salt Lake Center
Wed 05:24:03 PM 40.9492 -118.5781 198° South 513 590 36,000  Level Salt Lake Center
Wed 05:25:05 PM 40.7978 -118.6411 198° South 512 589 36,000  Level Salt Lake Center
Wed 05:26:07 PM 40.6681 -118.6944 197° South 513 590 36,000  Level Salt Lake Center
Wed 05:27:08 PM 40.5389 -118.7492 198° South 511 588 36,000  Level Salt Lake Center
Wed 05:28:10 PM 40.3867 -118.8125 198° South 512 589 36,000  Level Salt Lake Center
Wed 05:28:29 PM 40.3606 -118.8236 198° South 512 589 36,000  Level Oakland Center
Wed 05:29:30 PM 40.1969 -118.8917 198° South 515 593 36,000  Level Oakland Center
Wed 05:35:17 PM 39.4250 -119.2020 198° South 505 581 36,000  Level FlightAware ADS-B
Wed 05:36:02 PM 39.3120 -119.2470 197° South 504 580 36,000  Level FlightAware ADS-B
Wed 05:37:02 PM 39.1720 -119.2930 194° South 507 583 36,000  Level FlightAware ADS-B
Wed 05:37:42 PM 39.0940 -119.3140 192° South 507 583 36,000  Level FlightAware ADS-B
Wed 05:38:22 PM 39.0160 -119.3350 192° South 507 583 36,000  Level FlightAware ADS-B
Wed 05:39:02 PM 38.9380 -119.3570 192° South 507 583 36,000  Level FlightAware ADS-B
Wed 05:39:47 PM 38.7750 -119.3490 178° South 513 590 36,000  Level FlightAware ADS-B
Wed 05:40:32 PM 38.6660 -119.3650 187° South 512 589 36,000 71 Level FlightAware ADS-B
Wed 05:41:12 PM 38.5720 -119.3790 187° South 513 590 36,100 706 Climbing FlightAware ADS-B
Wed 05:41:57 PM 38.4670 -119.3950 187° South 513 590 37,000 635 Climbing FlightAware ADS-B
Wed 05:42:37 PM 38.3760 -119.4090 187° South 514 592 37,000  Level FlightAware ADS-B
Wed 05:43:17 PM 38.2780 -119.4230 186° South 514 592 37,000  Level FlightAware ADS-B
Wed 05:44:02 PM 38.1800 -119.4370 186° South 515 593 37,000  Level FlightAware ADS-B
Wed 05:44:42 PM 38.0840 -119.4520 187° South 515 593 37,000  Level FlightAware ADS-B
Wed 05:45:22 PM 38.0030 -119.4620 186° South 515 593 37,000  Level FlightAware ADS-B
Wed 05:46:07 PM 37.8790 -119.4830 188° South 512 589 37,000  Level FlightAware ADS-B
Wed 05:46:47 PM 37.7860 -119.4960 186° South 510 587 37,000  Level FlightAware ADS-B
Wed 05:47:32 PM 37.6730 -119.5130 187° South 507 583 37,000  Level FlightAware ADS-B
Wed 05:48:12 PM 37.5810 -119.5260 186° South 507 583 37,000  Level FlightAware ADS-B
Wed 05:48:57 PM 37.4780 -119.5410 187° South 507 583 37,000  Level FlightAware ADS-B
Wed 05:49:37 PM 37.3830 -119.5550 187° South 507 583 37,000  Level FlightAware ADS-B
Wed 05:50:17 PM 37.2910 -119.5680 186° South 508 585 37,000  Level FlightAware ADS-B
Wed 05:51:02 PM 37.1860 -119.5830 186° South 509 586 37,000  Level FlightAware ADS-B
Wed 05:51:42 PM 37.0890 -119.5960 186° South 510 587 37,000  Level FlightAware ADS-B
Wed 05:52:27 PM 36.9860 -119.6010 182° South 513 590 37,000  Level FlightAware ADS-B
Wed 05:53:07 PM 36.8900 -119.6000 180° South 512 589 37,000  Level FlightAware ADS-B
Wed 05:53:47 PM 36.7960 -119.6000 180° South 512 589 37,000  Level FlightAware ADS-B
Wed 05:54:32 PM 36.6910 -119.6010 180° South 511 588 37,000  Level FlightAware ADS-B
Wed 05:55:12 PM 36.5950 -119.6030 181° South 510 587 37,000  Level FlightAware ADS-B
Wed 05:55:57 PM 36.4870 -119.6050 181° South 509 586 37,000  Level FlightAware ADS-B
Wed 05:56:37 PM 36.3940 -119.6070 181° South 508 585 37,000  Level FlightAware ADS-B
Wed 05:57:17 PM 36.2990 -119.6090 181° South 507 583 37,000  Level FlightAware ADS-B
Wed 05:58:02 PM 36.1950 -119.6150 183° South 504 580 37,000  Level FlightAware ADS-B
Wed 05:58:42 PM 36.1050 -119.6480 197° South 502 578 37,000  Level FlightAware ADS-B
Wed 05:59:22 PM 36.0160 -119.6830 198° South 502 578 37,000  Level FlightAware ADS-B
Wed 05:59:52 PM 35.9500 -119.7100 198° South 502 578 37,000  Level FlightAware ADS-B
Wed 06:00:27 PM 35.8760 -119.7390 198° South 504 580 37,000  Level FlightAware ADS-B
Wed 06:01:17 PM 35.7550 -119.7490 184° South 509 586 37,000  Level FlightAware ADS-B
Wed 06:01:57 PM 35.6740 -119.7330 171° South 509 586 37,000  Level FlightAware ADS-B
Wed 06:02:42 PM 35.5580 -119.7060 169° South 510 587 37,000  Level FlightAware ADS-B
Wed 06:03:17 PM 35.4750 -119.6880 170° South 508 585 37,000 -375 Level FlightAware ADS-B
Wed 06:04:02 PM 35.3710 -119.6780 176° South 505 581 36,500 -1,600 Descending FlightAware ADS-B
Wed 06:04:47 PM 35.2640 -119.6760 179° South 500 575 34,600 -2,612 Descending FlightAware ADS-B
Wed 06:05:27 PM 35.1730 -119.6710 177° South 495 570 32,800 -2,047 Descending FlightAware ADS-B
Wed 06:06:12 PM 35.0810 -119.6240 157° South 493 567 31,700 -1,835 Descending FlightAware ADS-B
Wed 06:06:52 PM 35.0120 -119.5530 140° Southeast 483 556 30,200 -2,259 Descending FlightAware ADS-B
Wed 06:07:37 PM 34.9370 -119.4760 140° Southeast 473 544 28,500 -2,188 Descending FlightAware ADS-B
Wed 06:08:17 PM 34.8720 -119.4070 139° Southeast 464 534 27,100 -2,175 Descending FlightAware ADS-B
Wed 06:08:57 PM 34.8060 -119.3400 140° Southeast 448 516 25,600 -2,188 Descending FlightAware ADS-B
Wed 06:09:42 PM 34.7360 -119.2670 139° Southeast 445 512 24,000 -2,047 Descending FlightAware ADS-B
Wed 06:10:22 PM 34.6750 -119.2060 141° Southeast 430 495 22,700 -2,118 Descending FlightAware ADS-B
Wed 06:11:07 PM 34.6050 -119.1350 140° Southeast 419 482 21,000 -2,188 Descending FlightAware ADS-B
Wed 06:11:47 PM 34.5420 -119.0710 140° Southeast 410 472 19,600 -2,073 Descending FlightAware ADS-B
Wed 06:12:57 PM 34.4410 -118.9670 140° Southeast 401 461 17,200 -2,014 Descending FlightAware ADS-B
Wed 06:14:07 PM 34.3390 -118.8770 144° Southeast 388 447 14,900 -2,057 Descending FlightAware ADS-B
Wed 06:15:17 PM 34.2190 -118.8300 162° South 371 427 12,400 -1,523 Descending FlightAware ADS-B
Wed 06:16:17 PM 34.1220 -118.7950 163° South 334 384 11,600 -785 Descending FlightAware ADS-B
Wed 06:17:27 PM 34.0380 -118.7320 148° Southeast 295 339 10,700 -776 Descending FlightAware ADS-B
Wed 06:17:42 PM 34.0340 -118.7130 104° East 288 331 10,500 -960 Descending FlightAware ADS-B
Wed 06:18:17 PM 34.0290 -118.6570 96° East 276 318 9,900 -1,200 Descending FlightAware ADS-B
Wed 06:18:47 PM 34.0250 -118.6110 96° East 272 313 9,200 -1,100 Descending FlightAware ADS-B
Wed 06:19:17 PM 34.0210 -118.5660 96° East 261 300 8,800 -655 Descending FlightAware ADS-B
Wed 06:19:42 PM 34.0170 -118.5310 98° East 244 281 8,600 -655 Descending FlightAware ADS-B
Wed 06:20:12 PM 34.0140 -118.4920 95° East 227 261 8,200 -873 Descending FlightAware ADS-B
Wed 06:20:37 PM 34.0120 -118.4590 94° East 219 252 7,800 -1,200 Descending FlightAware ADS-B
Wed 06:21:07 PM 34.0150 -118.4230 84° East 216 249 7,100 -1,418 Descending FlightAware ADS-B
Wed 06:21:32 PM 34.0180 -118.3960 82° East 214 246 6,500 -1,527 Descending FlightAware ADS-B
Wed 06:22:02 PM 34.0220 -118.3600 82° East 210 242 5,700 -1,467 Descending FlightAware ADS-B
Wed 06:22:17 PM 34.0230 -118.3400 87° East 198 228 5,400 -1,200 Descending FlightAware ADS-B
Wed 06:22:42 PM 34.0250 -118.3160 84° East 188 216 4,900 -1,527 Descending FlightAware ADS-B
Wed 06:23:12 PM 34.0280 -118.2830 84° East 186 214 4,000 -1,527 Descending FlightAware ADS-B
Wed 06:23:37 PM 34.0310 -118.2570 82° East 187 215 3,500 -1,309 Descending FlightAware ADS-B
Wed 06:24:07 PM 34.0330 -118.2260 86° East 191 220 2,800 -900 Descending FlightAware ADS-B
Wed 06:24:37 PM 34.0250 -118.1980 109° East 190 219 2,600 -267 Descending FlightAware ADS-B
Wed 06:24:52 PM 34.0110 -118.1930 164° South 190 219 2,600 -150 Level FlightAware ADS-B
Wed 06:25:17 PM 33.9900 -118.1910 175° South 193 222 2,500  Descending FlightAware ADS-B
Wed 06:25:47 PM 33.9700 -118.2100 218° Southwest 196 226 2,600  Climbing FlightAware ADS-B
Wed 06:26:27 PM 33.9670 -118.2520 265° West 182 209 2,500 -400 Descending FlightAware ADS-B
Wed 06:26:47 PM 33.9650 -118.2700 262° West 180 207 2,200 -700 Descending FlightAware ADS-B
Wed 06:27:27 PM 33.9630 -118.2960 265° West 179 206 1,800 -750 Descending FlightAware ADS-B
Wed 06:28:07 PM 33.9590 -118.3360 263° West 149 171 1,200 -764 Descending FlightAware ADS-B
Wed 06:28:22 PM 33.9580 -118.3440 261° West 145 167 1,100 -750 Descending FlightAware ADS-B
Wed 06:28:47 PM 33.9560 -118.3650 263° West 142 163 700 -873 Descending FlightAware ADS-B
Wed 06:29:17 PM 33.9530 -118.3890 261° West 142 163 300 -429 Descending FlightAware ADS-B
Wed 06:29:57 PM 33.9500 -118.4180 263° West 140 161 200 -150 Descending FlightAware ADS-B
Wed 06:37:00 PM 33.9425 -118.4081 228° Southwest  Level Estimated

Login

Don't have an account? Register now (free) for customized features, flight alerts, and more!